createdAt,value
2023-05-10T00:00:57.323Z,1777.00
2023-05-10T00:01:57.276Z,1783.00
2023-05-10T00:02:57.269Z,1782.00
2023-05-10T00:03:57.182Z,1765.00
2023-05-10T00:04:57.046Z,1773.00
2023-05-10T00:05:56.985Z,1770.00
2023-05-10T00:06:56.919Z,1776.00
2023-05-10T00:07:56.850Z,1770.00
2023-05-10T00:08:56.783Z,1778.00
2023-05-10T00:09:56.724Z,1772.00
2023-05-10T00:10:56.650Z,1763.00
2023-05-10T00:11:56.595Z,1762.00
2023-05-10T00:12:56.570Z,1765.00
2023-05-10T00:13:56.460Z,1764.00
2023-05-10T00:14:56.392Z,1764.00
2023-05-10T00:15:56.352Z,1766.00
2023-05-10T00:16:56.290Z,1747.00
2023-05-10T00:17:56.232Z,1769.00
2023-05-10T00:18:56.149Z,1750.00
2023-05-10T00:19:56.072Z,1754.00
2023-05-10T00:20:56.009Z,1747.00
2023-05-10T00:21:55.947Z,1747.00
2023-05-10T00:22:55.881Z,1750.00
2023-05-10T00:23:55.817Z,1752.00
2023-05-10T00:24:55.757Z,1762.00
2023-05-10T00:25:55.684Z,1753.00
2023-05-10T00:26:55.615Z,1753.00
2023-05-10T00:27:55.555Z,1736.00
2023-05-10T00:28:55.493Z,1760.00
2023-05-10T00:29:55.426Z,1764.00
2023-05-10T00:30:55.362Z,1744.00
2023-05-10T00:31:55.351Z,1745.00
2023-05-10T00:32:55.303Z,1750.00
2023-05-10T00:33:55.185Z,1747.00
2023-05-10T00:34:55.108Z,1739.00
2023-05-10T00:35:55.056Z,1747.00
2023-05-10T00:36:54.996Z,1744.00
2023-05-10T00:37:54.921Z,1729.00
2023-05-10T00:38:54.879Z,1744.00
2023-05-10T00:39:54.798Z,1732.00
2023-05-10T00:40:54.752Z,1727.00
2023-05-10T00:41:54.688Z,1738.00
2023-05-10T00:42:54.618Z,1730.00
2023-05-10T00:43:54.576Z,1734.00
2023-05-10T00:44:54.492Z,1728.00
2023-05-10T00:45:54.432Z,1727.00
2023-05-10T00:46:54.363Z,1730.00
2023-05-10T00:47:54.348Z,1724.00
2023-05-10T00:48:54.223Z,1726.00
2023-05-10T00:49:54.075Z,1728.00
2023-05-10T00:50:53.953Z,1732.00
2023-05-10T00:51:53.843Z,1729.00
2023-05-10T00:52:53.745Z,1734.00
2023-05-10T00:53:53.621Z,1727.00
2023-05-10T00:54:53.499Z,1725.00
2023-05-10T00:55:53.391Z,1743.00
2023-05-10T00:56:53.270Z,1731.00
2023-05-10T00:57:53.158Z,1733.00
2023-05-10T00:58:53.048Z,1727.00
2023-05-10T00:59:52.932Z,1715.00
2023-05-10T01:00:52.860Z,1727.00
2023-05-10T01:01:52.841Z,1720.00
2023-05-10T01:02:52.757Z,1717.00
2023-05-10T01:03:52.693Z,1715.00
2023-05-10T01:04:52.628Z,1715.00
2023-05-10T01:05:52.548Z,1713.00
2023-05-10T01:06:52.491Z,1696.00
2023-05-10T01:07:52.425Z,1709.00
2023-05-10T01:08:52.376Z,1718.00
2023-05-10T01:09:52.316Z,1721.00
2023-05-10T01:10:52.242Z,1713.00
2023-05-10T01:11:52.230Z,1711.00
2023-05-10T01:12:52.238Z,1703.00
2023-05-10T01:13:52.071Z,1710.00
2023-05-10T01:14:51.994Z,1708.00
2023-05-10T01:15:51.968Z,1705.00
2023-05-10T01:16:51.866Z,1708.00
2023-05-10T01:17:51.841Z,1693.00
2023-05-10T01:18:51.732Z,1695.00
2023-05-10T01:19:51.657Z,1706.00
2023-05-10T01:20:51.603Z,1705.00
2023-05-10T01:21:51.537Z,1693.00
2023-05-10T01:22:51.479Z,1701.00
2023-05-10T01:23:51.424Z,1697.00
2023-05-10T01:24:51.360Z,1702.00
2023-05-10T01:25:51.292Z,1697.00
2023-05-10T01:26:51.230Z,1696.00
2023-05-10T01:27:51.178Z,1698.00
2023-05-10T01:28:51.131Z,1695.00
2023-05-10T01:30:01.388Z,1686.00
2023-05-10T01:30:51.943Z,1688.00
2023-05-10T01:31:50.889Z,1688.00
2023-05-10T01:32:50.804Z,1691.00
2023-05-10T01:33:50.607Z,1689.00
2023-05-10T01:34:50.481Z,1708.00
2023-05-10T01:35:50.389Z,1691.00
2023-05-10T01:36:50.269Z,1693.00
2023-05-10T01:37:50.158Z,1695.00
2023-05-10T01:38:50.063Z,1703.00
2023-05-10T01:39:49.931Z,1690.00
2023-05-10T01:40:49.819Z,1685.00
2023-05-10T01:41:49.716Z,1682.00
2023-05-10T01:42:49.655Z,1688.00
2023-05-10T01:43:49.611Z,1683.00
2023-05-10T01:44:49.531Z,1679.00
2023-05-10T01:45:49.470Z,1677.00
2023-05-10T01:46:49.449Z,1686.00
2023-05-10T01:47:49.370Z,1658.00
2023-05-10T01:48:49.292Z,1674.00
2023-05-10T01:49:49.233Z,1672.00
2023-05-10T01:50:49.180Z,1680.00
2023-05-10T01:51:49.164Z,1682.00
2023-05-10T01:52:49.071Z,1681.00
2023-05-10T01:53:49.012Z,1683.00
2023-05-10T01:54:48.943Z,1671.00
2023-05-10T01:55:48.881Z,1667.00
2023-05-10T01:56:48.804Z,1660.00
2023-05-10T01:57:48.762Z,1671.00
2023-05-10T01:58:48.712Z,1678.00
2023-05-10T01:59:48.627Z,1661.00
2023-05-10T02:00:48.578Z,1666.00
2023-05-10T02:01:48.508Z,1657.00
2023-05-10T02:02:48.466Z,1662.00
2023-05-10T02:03:48.399Z,1661.00
2023-05-10T02:04:48.324Z,1655.00
2023-05-10T02:05:48.271Z,1673.00
2023-05-10T02:06:48.205Z,1664.00
2023-05-10T02:07:48.145Z,1651.00
2023-05-10T02:08:48.089Z,1661.00
2023-05-10T02:09:48.031Z,1650.00
2023-05-10T02:10:47.983Z,1660.00
2023-05-10T02:11:47.916Z,1654.00
2023-05-10T02:12:47.914Z,1654.00
2023-05-10T02:13:47.801Z,1651.00
2023-05-10T02:14:47.753Z,1646.00
2023-05-10T02:15:47.671Z,1655.00
2023-05-10T02:16:47.729Z,1643.00
2023-05-10T02:17:47.626Z,1654.00
2023-05-10T02:18:47.486Z,1644.00
2023-05-10T02:19:47.468Z,1636.00
2023-05-10T02:20:47.366Z,1634.00
2023-05-10T02:21:47.311Z,1631.00
2023-05-10T02:22:47.248Z,1634.00
2023-05-10T02:23:47.197Z,1650.00
2023-05-10T02:24:47.137Z,1647.00
2023-05-10T02:25:47.076Z,1641.00
2023-05-10T02:26:47.010Z,1627.00
2023-05-10T02:27:46.967Z,1637.00
2023-05-10T02:28:46.878Z,1621.00
2023-05-10T02:29:46.836Z,1619.00
2023-05-10T02:30:46.764Z,1632.00
2023-05-10T02:31:46.749Z,1632.00
2023-05-10T02:32:46.698Z,1622.00
2023-05-10T02:33:46.598Z,1631.00
2023-05-10T02:34:46.534Z,1629.00
2023-05-10T02:35:46.476Z,1623.00
2023-05-10T02:36:46.417Z,1633.00
2023-05-10T02:37:46.354Z,1622.00
2023-05-10T02:38:46.295Z,1631.00
2023-05-10T02:39:46.239Z,1628.00
2023-05-10T02:40:46.176Z,1621.00
2023-05-10T02:41:46.159Z,1624.00
2023-05-10T02:42:46.052Z,1610.00
2023-05-10T02:43:46.000Z,1616.00
2023-05-10T02:44:45.944Z,1640.00
2023-05-10T02:45:45.887Z,1613.00
2023-05-10T02:46:45.820Z,1601.00
2023-05-10T02:47:45.853Z,1597.00
2023-05-10T02:48:45.711Z,1597.00
2023-05-10T02:49:45.658Z,1610.00
2023-05-10T02:50:45.603Z,1611.00
2023-05-10T02:51:45.551Z,1606.00
2023-05-10T02:52:45.491Z,1602.00
2023-05-10T02:53:45.429Z,1598.00
2023-05-10T02:54:45.385Z,1616.00
2023-05-10T02:55:45.326Z,1607.00
2023-05-10T02:56:45.266Z,1603.00
2023-05-10T02:57:45.226Z,1601.00
2023-05-10T02:58:45.165Z,1600.00
2023-05-10T02:59:45.107Z,1606.00
2023-05-10T03:00:45.051Z,1593.00
2023-05-10T03:01:45.041Z,1602.00
2023-05-10T03:02:44.942Z,1579.00
2023-05-10T03:03:44.893Z,1557.00
2023-05-10T03:04:44.849Z,1514.00
2023-05-10T03:05:44.779Z,1453.00
2023-05-10T03:06:44.720Z,1414.00
2023-05-10T03:07:44.665Z,1373.00
2023-05-10T03:08:44.612Z,1322.00
2023-05-10T03:09:44.562Z,1288.00
2023-05-10T03:10:44.525Z,1243.00
2023-05-10T03:11:44.476Z,1205.00
2023-05-10T03:12:44.436Z,1165.00
2023-05-10T03:13:44.371Z,1118.00
2023-05-10T03:14:44.253Z,1118.00
2023-05-10T03:15:44.180Z,1066.00
2023-05-10T03:16:44.886Z,1052.00
2023-05-10T03:17:43.951Z,1012.00
2023-05-10T03:18:43.800Z,984.00
2023-05-10T03:19:43.691Z,948.00
2023-05-10T03:20:43.569Z,916.00
2023-05-10T03:21:43.463Z,892.00
2023-05-10T03:22:43.375Z,861.00
2023-05-10T03:23:43.328Z,839.00
2023-05-10T03:24:43.275Z,811.00
2023-05-10T03:25:43.213Z,793.00
2023-05-10T03:26:43.130Z,760.00
2023-05-10T03:27:43.059Z,746.00
2023-05-10T03:28:42.988Z,736.00
2023-05-10T03:29:42.882Z,730.00
2023-05-10T03:30:42.785Z,706.00
2023-05-10T03:33:01.766Z,500.00
2023-05-10T03:34:01.732Z,500.00
2023-05-10T03:35:01.733Z,500.00
2023-05-10T03:36:01.735Z,500.00
2023-05-10T03:37:01.748Z,500.00
2023-05-10T03:38:01.745Z,500.00
2023-05-10T03:39:01.769Z,504.00
2023-05-10T03:40:01.767Z,506.00
2023-05-10T03:41:01.769Z,503.00
2023-05-10T03:42:01.773Z,508.00
2023-05-10T03:43:01.796Z,502.00
2023-05-10T03:44:01.794Z,501.00
2023-05-10T03:45:01.797Z,503.00
2023-05-10T03:46:01.794Z,507.00
2023-05-10T03:47:01.920Z,516.00
2023-05-10T03:48:01.864Z,506.00
2023-05-10T03:49:01.826Z,501.00
2023-05-10T03:50:01.831Z,504.00
2023-05-10T03:51:01.833Z,504.00
2023-05-10T03:52:01.854Z,506.00
2023-05-10T03:53:01.843Z,500.00
2023-05-10T03:54:01.874Z,500.00
2023-05-10T03:55:01.860Z,508.00
2023-05-10T03:56:01.871Z,505.00
2023-05-10T03:57:01.876Z,512.00
2023-05-10T03:58:01.870Z,509.00
2023-05-10T03:59:01.876Z,507.00
2023-05-10T04:00:01.884Z,506.00
2023-05-10T04:01:01.886Z,506.00
2023-05-10T04:02:01.932Z,508.00
2023-05-10T04:03:01.966Z,508.00
2023-05-10T04:04:01.972Z,510.00
2023-05-10T04:05:01.913Z,511.00
2023-05-10T04:06:02.064Z,514.00
2023-05-10T04:07:01.925Z,523.00
2023-05-10T04:08:01.924Z,518.00
2023-05-10T04:09:01.932Z,532.00
2023-05-10T04:10:01.944Z,522.00
2023-05-10T04:11:01.952Z,525.00
2023-05-10T04:12:01.965Z,526.00
2023-05-10T04:13:01.996Z,526.00
2023-05-10T04:14:01.970Z,526.00
2023-05-10T04:15:01.972Z,527.00
2023-05-10T04:16:01.988Z,529.00
2023-05-10T04:17:02.285Z,532.00
2023-05-10T04:18:02.062Z,536.00
2023-05-10T04:19:02.014Z,531.00
2023-05-10T04:20:02.042Z,541.00
2023-05-10T04:21:02.017Z,534.00
2023-05-10T04:22:02.038Z,533.00
2023-05-10T04:23:02.034Z,545.00
2023-05-10T04:24:02.056Z,537.00
2023-05-10T04:25:02.078Z,548.00
2023-05-10T04:26:02.054Z,547.00
2023-05-10T04:27:02.068Z,556.00
2023-05-10T04:28:02.060Z,556.00
2023-05-10T04:29:02.094Z,559.00
2023-05-10T04:30:02.091Z,557.00
2023-05-10T04:31:02.169Z,560.00
2023-05-10T04:32:02.099Z,567.00
2023-05-10T04:33:02.145Z,578.00
2023-05-10T04:34:02.110Z,597.00
2023-05-10T04:35:02.104Z,592.00
2023-05-10T04:36:02.130Z,596.00
2023-05-10T04:37:02.109Z,596.00
2023-05-10T04:38:02.165Z,597.00
2023-05-10T04:39:02.130Z,601.00
2023-05-10T04:40:02.171Z,612.00
2023-05-10T04:41:02.145Z,627.00
2023-05-10T04:42:02.169Z,639.00
2023-05-10T04:43:02.147Z,639.00
2023-05-10T04:44:02.157Z,641.00
2023-05-10T04:45:02.161Z,645.00
2023-05-10T04:46:02.184Z,651.00
2023-05-10T04:47:02.162Z,664.00
2023-05-10T04:48:02.192Z,669.00
2023-05-10T04:49:02.172Z,704.00
2023-05-10T04:50:02.202Z,714.00
2023-05-10T04:51:02.248Z,724.00
2023-05-10T04:52:02.196Z,738.00
2023-05-10T04:53:02.196Z,749.00
2023-05-10T04:54:06.381Z,763.00
2023-05-10T04:55:02.210Z,764.00
2023-05-10T04:56:02.231Z,767.00
2023-05-10T04:57:02.219Z,770.00
2023-05-10T04:58:02.231Z,767.00
2023-05-10T04:59:02.240Z,798.00
2023-05-10T05:00:02.224Z,783.00
2023-05-10T05:01:02.234Z,790.00
2023-05-10T05:02:02.333Z,814.00
2023-05-10T05:03:02.299Z,810.00
2023-05-10T05:04:02.316Z,807.00
2023-05-10T05:05:02.240Z,819.00
2023-05-10T05:06:02.282Z,828.00
2023-05-10T05:07:02.257Z,816.00
2023-05-10T05:08:02.287Z,809.00
2023-05-10T05:09:02.313Z,793.00
2023-05-10T05:10:02.311Z,771.00
2023-05-10T05:11:02.264Z,772.00
2023-05-10T05:12:02.267Z,736.00
2023-05-10T05:13:02.284Z,697.00
2023-05-10T05:14:02.268Z,662.00
2023-05-10T05:15:02.272Z,660.00
2023-05-10T05:16:02.322Z,646.00
2023-05-10T05:17:02.286Z,642.00
2023-05-10T05:18:02.339Z,637.00
2023-05-10T05:19:02.320Z,635.00
2023-05-10T05:20:02.312Z,622.00
2023-05-10T05:21:02.317Z,625.00
2023-05-10T05:22:02.320Z,618.00
2023-05-10T05:23:02.319Z,622.00
2023-05-10T05:24:02.334Z,622.00
2023-05-10T05:25:02.329Z,617.00
2023-05-10T05:26:02.345Z,615.00
2023-05-10T05:27:02.369Z,623.00
2023-05-10T05:28:02.414Z,639.00
2023-05-10T05:29:02.420Z,639.00
2023-05-10T05:30:02.420Z,641.00
2023-05-10T05:31:02.453Z,645.00
2023-05-10T05:32:02.586Z,656.00
2023-05-10T05:33:02.450Z,640.00
2023-05-10T05:34:02.459Z,648.00
2023-05-10T05:35:02.507Z,663.00
2023-05-10T05:36:02.502Z,720.00
2023-05-10T05:37:02.505Z,822.00
2023-05-10T09:43:58.137Z,500.00
2023-05-10T09:44:58.140Z,500.00
2023-05-10T09:45:58.102Z,500.00
2023-05-10T09:46:58.110Z,500.00
2023-05-10T09:47:58.050Z,500.00
2023-05-10T09:48:57.973Z,400.00
2023-05-10T09:49:57.920Z,400.00
2023-05-10T09:50:57.837Z,400.00
2023-05-10T09:51:57.755Z,400.00
2023-05-10T09:52:57.689Z,400.00
2023-05-10T09:53:57.611Z,400.00
2023-05-10T09:54:57.510Z,400.00
2023-05-10T09:55:57.441Z,400.00
2023-05-10T09:56:57.351Z,400.00
2023-05-10T09:57:57.312Z,400.00
2023-05-10T09:58:57.182Z,400.00
2023-05-10T09:59:57.115Z,400.00
2023-05-10T10:00:57.228Z,400.00
2023-05-10T10:01:57.141Z,400.00
2023-05-10T10:02:56.924Z,400.00
2023-05-10T10:03:56.808Z,400.00
2023-05-10T10:04:56.743Z,400.00
2023-05-10T10:05:56.639Z,400.00
2023-05-10T10:06:56.570Z,400.00
2023-05-10T10:07:56.486Z,400.00
2023-05-10T10:08:56.858Z,400.00
2023-05-10T10:09:56.417Z,400.00
2023-05-10T10:10:56.392Z,400.00
2023-05-10T10:11:56.326Z,400.00
2023-05-10T10:12:56.278Z,400.00
2023-05-10T10:13:56.219Z,400.00
2023-05-10T10:14:56.165Z,400.00
2023-05-10T10:15:56.152Z,400.00
2023-05-10T10:17:07.291Z,400.00
2023-05-10T10:17:57.039Z,400.00
2023-05-10T10:18:55.921Z,400.00
2023-05-10T10:19:55.786Z,400.00
2023-05-10T10:21:03.309Z,400.00
2023-05-10T10:21:55.624Z,400.00
2023-05-10T10:24:15.104Z,500.00
2023-05-10T10:25:15.311Z,500.00
2023-05-10T10:26:15.097Z,500.00
2023-05-10T10:27:15.070Z,500.00
2023-05-10T10:28:15.072Z,500.00
2023-05-10T10:29:15.074Z,510.00
2023-05-10T10:30:15.079Z,518.00
2023-05-10T10:31:15.096Z,518.00
2023-05-10T10:32:15.052Z,525.00
2023-05-10T10:33:27.221Z,533.00
2023-05-10T10:34:15.059Z,533.00
2023-05-10T10:35:15.204Z,535.00
2023-05-10T10:36:15.029Z,533.00
2023-05-10T10:37:15.017Z,531.00
2023-05-10T10:38:15.013Z,521.00
2023-05-10T10:39:15.014Z,494.00
2023-05-10T10:40:14.998Z,465.00
2023-05-10T10:41:15.013Z,428.00
2023-05-10T10:42:14.992Z,453.00
2023-05-10T10:43:15.001Z,424.00
2023-05-10T10:44:14.976Z,459.00
2023-05-10T10:45:15.159Z,524.00
2023-05-10T10:46:15.083Z,529.00
2023-05-10T10:47:14.981Z,563.00
2023-05-10T10:48:14.968Z,563.00
2023-05-10T10:49:14.969Z,565.00
2023-05-10T10:50:15.082Z,568.00
2023-05-10T10:51:14.947Z,574.00
2023-05-10T10:52:14.957Z,572.00
2023-05-10T10:53:14.980Z,561.00
2023-05-10T10:54:14.951Z,562.00
2023-05-10T10:55:15.209Z,557.00
2023-05-10T10:56:15.030Z,545.00
2023-05-10T10:57:14.943Z,530.00
2023-05-10T10:58:14.917Z,536.00
2023-05-10T10:59:14.926Z,541.00
2023-05-10T11:00:14.994Z,552.00
2023-05-10T11:01:15.033Z,563.00
2023-05-10T11:02:14.921Z,585.00
2023-05-10T11:03:14.959Z,602.00
2023-05-10T11:04:14.940Z,592.00
2023-05-10T11:05:15.069Z,589.00
2023-05-10T11:06:14.933Z,586.00
2023-05-10T11:07:14.949Z,559.00
2023-05-10T11:08:14.911Z,480.00
2023-05-10T11:09:14.909Z,469.00
2023-05-10T11:10:14.926Z,449.00
2023-05-10T11:11:14.970Z,481.00
2023-05-10T11:12:14.909Z,492.00
2023-05-10T11:13:14.902Z,491.00
2023-05-10T11:14:14.898Z,486.00
2023-05-10T11:15:15.044Z,469.00
2023-05-10T11:16:14.926Z,400.00
2023-05-10T11:17:15.010Z,400.00
2023-05-10T11:18:14.888Z,400.00
2023-05-10T11:19:15.019Z,400.00
2023-05-10T11:20:15.318Z,400.00
2023-05-10T11:21:14.884Z,400.00
2023-05-10T11:22:14.888Z,404.00
2023-05-10T11:23:14.883Z,416.00
2023-05-10T11:24:14.910Z,478.00
2023-05-10T11:25:14.929Z,498.00
2023-05-10T11:26:14.903Z,503.00
2023-05-10T11:27:14.829Z,503.00
2023-05-10T11:28:14.845Z,499.00
2023-05-10T11:29:14.925Z,500.00
2023-05-10T11:30:14.942Z,479.00
2023-05-10T11:31:14.896Z,500.00
2023-05-10T11:32:14.833Z,505.00
2023-05-10T11:33:14.801Z,510.00
2023-05-10T11:34:14.809Z,502.00
2023-05-10T11:35:14.797Z,493.00
2023-05-10T11:36:14.808Z,493.00
2023-05-10T11:37:14.791Z,502.00
2023-05-10T11:38:14.804Z,502.00
2023-05-10T11:39:14.812Z,499.00
2023-05-10T11:40:14.867Z,505.00
2023-05-10T11:41:14.767Z,542.00
2023-05-10T11:42:14.769Z,563.00
2023-05-10T11:43:14.799Z,587.00
2023-05-10T11:44:14.827Z,611.00
2023-05-10T11:45:14.860Z,633.00
2023-05-10T11:46:14.892Z,665.00
2023-05-10T11:47:14.899Z,741.00
2023-05-10T11:48:14.956Z,761.00
2023-05-10T11:49:14.937Z,809.00
2023-05-10T11:50:15.207Z,849.00
2023-05-10T11:51:14.997Z,875.00
2023-05-10T11:52:15.011Z,910.00
2023-05-10T11:53:15.041Z,945.00
2023-05-10T11:54:15.053Z,1007.00
2023-05-10T11:55:15.079Z,1037.00
2023-05-10T11:56:15.075Z,1021.00
2023-05-10T11:57:15.083Z,1010.00
2023-05-10T11:58:15.098Z,1013.00
2023-05-10T11:59:15.104Z,1061.00
2023-05-10T12:00:15.366Z,1078.00
2023-05-10T12:01:15.138Z,1104.00
2023-05-10T12:02:15.183Z,1118.00
2023-05-10T12:03:15.211Z,1166.00
2023-05-10T12:04:15.352Z,1192.00
2023-05-10T12:05:15.181Z,1212.00
2023-05-10T12:06:15.199Z,1257.00
2023-05-10T12:07:15.216Z,1284.00
2023-05-10T12:08:15.244Z,1344.00
2023-05-10T12:09:15.277Z,1388.00
2023-05-10T12:10:15.633Z,1388.00
2023-05-10T12:11:15.241Z,1350.00
2023-05-10T12:12:15.224Z,1378.00
2023-05-10T12:13:15.234Z,1389.00
2023-05-10T12:14:15.226Z,1395.00
2023-05-10T12:15:15.205Z,1416.00
2023-05-10T12:16:15.274Z,1439.00
2023-05-10T12:17:15.181Z,1534.00
2023-05-10T12:18:15.219Z,1574.00
2023-05-10T12:19:15.183Z,1581.00
2023-05-10T12:20:15.480Z,1580.00
2023-05-10T12:21:15.155Z,1592.00
2023-05-10T12:22:15.142Z,1609.00
2023-05-10T12:23:15.136Z,1650.00
2023-05-10T12:24:15.148Z,1680.00
2023-05-10T12:25:15.117Z,1677.00
2023-05-10T12:26:15.111Z,1690.00
2023-05-10T12:27:15.093Z,1688.00
2023-05-10T12:28:15.097Z,1741.00
2023-05-10T12:29:15.081Z,1727.00
2023-05-10T12:30:15.392Z,1698.00
2023-05-10T12:31:15.109Z,1717.00
2023-05-10T12:32:15.099Z,1730.00
2023-05-10T12:33:15.113Z,1740.00
2023-05-10T12:34:15.063Z,1767.00
2023-05-10T12:35:15.044Z,1773.00
2023-05-10T12:36:15.032Z,1792.00
2023-05-10T12:37:15.011Z,1904.00
2023-05-10T12:38:15.022Z,1941.00
2023-05-10T12:39:15.242Z,1983.00
2023-05-10T12:40:15.337Z,2027.00
2023-05-10T12:41:15.136Z,2062.00
2023-05-10T12:42:15.855Z,2064.00
2023-05-10T12:43:14.974Z,2075.00
2023-05-10T12:44:14.967Z,1472.00
2023-05-10T12:45:14.944Z,832.00
2023-05-10T12:46:14.985Z,631.00
2023-05-10T12:47:14.936Z,632.00
2023-05-10T12:48:14.980Z,502.00
2023-05-10T12:49:14.935Z,500.00
2023-05-10T12:50:15.100Z,458.00
2023-05-10T12:51:14.917Z,532.00
2023-05-10T12:52:14.915Z,541.00
2023-05-10T12:53:14.900Z,526.00
2023-05-10T12:54:14.924Z,530.00
2023-05-10T12:55:14.914Z,506.00
2023-05-10T12:56:14.916Z,496.00
2023-05-10T12:57:14.940Z,514.00
2023-05-10T12:58:31.314Z,521.00
2023-05-10T12:59:16.019Z,428.00
2023-05-10T13:00:15.119Z,471.00
2023-05-10T13:01:15.060Z,491.00
2023-05-10T13:02:15.023Z,525.00
2023-05-10T13:03:15.039Z,543.00
2023-05-10T13:04:15.049Z,542.00
2023-05-10T13:05:15.102Z,549.00
2023-05-10T13:06:15.043Z,546.00
2023-05-10T13:07:15.046Z,516.00
2023-05-10T13:08:15.048Z,500.00
2023-05-10T13:09:15.062Z,569.00
2023-05-10T13:10:15.290Z,636.00
2023-05-10T13:11:15.086Z,688.00
2023-05-10T13:12:15.153Z,697.00
2023-05-10T13:13:15.241Z,792.00
2023-05-10T13:14:15.296Z,834.00
2023-05-10T13:15:15.288Z,953.00
2023-05-10T13:16:15.372Z,990.00
2023-05-10T13:17:15.399Z,1117.00
2023-05-10T13:18:15.493Z,1055.00
2023-05-10T13:19:15.444Z,1065.00
2023-05-10T13:20:15.668Z,1178.00
2023-05-10T13:21:15.507Z,1228.00
2023-05-10T13:22:18.680Z,1212.00
2023-05-10T13:23:16.538Z,1213.00
2023-05-10T13:24:15.515Z,1215.00
2023-05-10T13:25:15.520Z,1226.00
2023-05-10T13:26:15.514Z,1253.00
2023-05-10T13:27:15.519Z,1384.00
2023-05-10T13:28:15.506Z,1571.00
2023-05-10T13:29:15.530Z,1464.00
2023-05-10T13:30:15.794Z,1522.00
2023-05-10T13:31:15.579Z,1461.00
2023-05-10T13:32:15.528Z,1411.00
2023-05-10T13:33:15.531Z,1341.00
2023-05-10T13:34:15.499Z,1321.00
2023-05-10T13:35:15.502Z,1130.00
2023-05-10T13:36:15.501Z,1047.00
2023-05-10T13:37:15.551Z,1036.00
2023-05-10T13:38:15.492Z,949.00
2023-05-10T13:39:15.503Z,982.00
2023-05-10T13:40:15.676Z,938.00
2023-05-10T13:41:15.505Z,1039.00
2023-05-10T13:42:15.520Z,951.00
2023-05-10T13:43:15.496Z,953.00
2023-05-10T13:44:15.501Z,965.00
2023-05-10T13:45:15.791Z,936.00
2023-05-10T13:46:15.518Z,969.00
2023-05-10T13:47:15.519Z,954.00
2023-05-10T13:48:15.486Z,839.00
2023-05-10T13:49:15.487Z,859.00
2023-05-10T13:50:15.491Z,805.00
2023-05-10T13:51:15.497Z,792.00
2023-05-10T13:52:15.480Z,739.00
2023-05-10T13:53:15.488Z,738.00
2023-05-10T13:54:15.468Z,680.00
2023-05-10T13:55:15.616Z,641.00
2023-05-10T13:56:15.485Z,604.00
2023-05-10T13:57:15.475Z,594.00
2023-05-10T13:58:15.480Z,611.00
2023-05-10T13:59:15.476Z,608.00
2023-05-10T14:00:15.461Z,594.00
2023-05-10T14:01:15.547Z,576.00
2023-05-10T14:02:15.539Z,597.00
2023-05-10T14:03:15.506Z,571.00
2023-05-10T14:04:15.446Z,558.00
2023-05-10T14:05:15.569Z,551.00
2023-05-10T14:06:15.451Z,535.00
2023-05-10T14:07:15.521Z,539.00
2023-05-10T14:08:15.461Z,562.00
2023-05-10T14:09:15.508Z,555.00
2023-05-10T14:10:15.512Z,537.00
2023-05-10T14:11:15.467Z,577.00
2023-05-10T14:12:15.500Z,590.00
2023-05-10T14:13:15.481Z,615.00
2023-05-10T14:14:15.486Z,650.00
2023-05-10T14:15:15.583Z,651.00
2023-05-10T14:16:15.534Z,649.00
2023-05-10T14:17:15.487Z,640.00
2023-05-10T14:18:15.469Z,623.00
2023-05-10T14:19:15.476Z,622.00
2023-05-10T14:20:15.477Z,686.00
2023-05-10T14:21:15.475Z,690.00
2023-05-10T14:22:15.491Z,694.00
2023-05-10T14:23:15.471Z,648.00
2023-05-10T14:24:15.503Z,687.00
2023-05-10T14:25:15.749Z,792.00
2023-05-10T14:26:15.495Z,942.00
2023-05-10T14:27:15.491Z,1046.00
2023-05-10T14:28:15.553Z,1123.00
2023-05-10T14:29:15.480Z,1161.00
2023-05-10T14:30:15.475Z,1239.00
2023-05-10T14:31:15.481Z,1267.00
2023-05-10T14:32:15.528Z,1298.00
2023-05-10T14:33:15.474Z,1328.00
2023-05-10T14:34:15.478Z,1347.00
2023-05-10T14:35:16.951Z,1361.00
2023-05-10T14:36:15.470Z,1363.00
2023-05-10T14:37:15.489Z,1369.00
2023-05-10T14:38:15.476Z,1396.00
2023-05-10T14:39:15.478Z,1431.00
2023-05-10T14:40:15.478Z,1483.00
2023-05-10T14:41:15.492Z,1494.00
2023-05-10T14:42:15.496Z,1494.00
2023-05-10T14:43:15.487Z,1522.00
2023-05-10T14:44:15.484Z,1546.00
2023-05-10T14:45:15.629Z,1547.00
2023-05-10T14:46:15.491Z,1550.00
2023-05-10T14:47:15.498Z,1564.00
2023-05-10T14:48:15.481Z,1582.00
2023-05-10T14:49:15.484Z,1549.00
2023-05-10T14:50:28.285Z,1560.00
2023-05-10T14:51:16.465Z,1550.00
2023-05-10T14:52:15.479Z,1565.00
2023-05-10T14:53:15.459Z,1589.00
2023-05-10T14:54:15.445Z,1644.00
2023-05-10T14:55:15.674Z,1708.00
2023-05-10T14:56:15.452Z,1730.00
2023-05-10T14:57:15.477Z,1728.00
2023-05-10T14:58:15.468Z,1735.00
2023-05-10T14:59:15.514Z,1761.00
2023-05-10T15:00:15.804Z,1764.00
2023-05-10T15:01:15.647Z,1771.00
2023-05-10T15:02:15.699Z,1799.00
2023-05-10T15:03:15.832Z,1828.00
2023-05-10T15:04:15.731Z,1830.00
2023-05-10T15:05:16.007Z,1834.00
2023-05-10T15:06:15.734Z,1849.00
2023-05-10T15:07:15.736Z,1892.00
2023-05-10T15:08:15.730Z,1927.00
2023-05-10T15:09:15.722Z,1962.00
2023-05-10T15:10:15.757Z,1994.00
2023-05-10T15:11:15.735Z,2039.00
2023-05-10T15:12:15.763Z,2065.00
2023-05-10T15:13:15.839Z,2056.00
2023-05-10T15:14:15.883Z,2085.00
2023-05-10T15:15:16.181Z,2107.00
2023-05-10T15:16:16.080Z,2125.00
2023-05-10T15:17:16.008Z,2126.00
2023-05-10T15:18:16.067Z,2131.00
2023-05-10T15:19:15.995Z,2150.00
2023-05-10T15:20:15.994Z,2172.00
2023-05-10T15:21:15.997Z,2214.00
2023-05-10T15:22:15.993Z,2243.00
2023-05-10T15:23:15.986Z,2265.00
2023-05-10T15:24:15.988Z,2282.00
2023-05-10T15:25:16.154Z,2294.00
2023-05-10T15:26:15.984Z,2304.00
2023-05-10T15:27:15.996Z,2322.00
2023-05-10T15:28:16.041Z,2318.00
2023-05-10T15:29:16.100Z,2344.00
2023-05-10T15:30:16.158Z,2350.00
2023-05-10T15:31:16.204Z,2351.00
2023-05-10T15:32:16.157Z,2355.00
2023-05-10T15:33:16.167Z,2365.00
2023-05-10T15:34:16.155Z,2384.00
2023-05-10T15:35:16.305Z,2413.00
2023-05-10T15:36:16.156Z,2428.00
2023-05-10T15:37:16.164Z,2445.00
2023-05-10T15:38:16.148Z,2436.00
2023-05-10T15:39:16.161Z,2464.00
2023-05-10T15:40:16.163Z,2461.00
2023-05-10T15:41:16.151Z,2477.00
2023-05-10T15:42:16.145Z,2477.00
2023-05-10T15:43:16.149Z,2468.00
2023-05-10T15:44:16.168Z,2490.00
2023-05-10T15:45:16.672Z,2492.00
2023-05-10T15:46:16.320Z,2508.00
2023-05-10T15:47:16.309Z,2523.00
2023-05-10T15:48:16.350Z,2519.00
2023-05-10T15:49:16.380Z,2523.00
2023-05-10T15:50:16.423Z,2535.00
2023-05-10T15:51:16.472Z,2532.00
2023-05-10T15:52:16.502Z,2541.00
2023-05-10T15:53:16.555Z,2531.00
2023-05-10T15:54:16.606Z,2543.00
2023-05-10T15:55:16.800Z,2546.00
2023-05-10T15:56:16.692Z,2564.00
2023-05-10T15:57:16.752Z,2555.00
2023-05-10T15:58:16.796Z,2567.00
2023-05-10T15:59:16.812Z,2577.00
2023-05-10T16:00:16.866Z,2567.00
2023-05-10T16:01:16.954Z,2553.00
2023-05-10T16:02:16.982Z,2567.00
2023-05-10T16:03:17.002Z,2579.00
2023-05-10T16:04:17.029Z,2576.00
2023-05-10T16:05:17.324Z,2578.00
2023-05-10T16:06:17.129Z,2559.00
2023-05-10T16:07:17.153Z,2591.00
2023-05-10T16:08:17.194Z,2593.00
2023-05-10T16:09:17.231Z,2604.00
2023-05-10T16:10:17.268Z,2595.00
2023-05-10T16:11:17.314Z,2580.00
2023-05-10T16:12:17.348Z,2601.00
2023-05-10T16:13:17.389Z,2592.00
2023-05-10T16:14:17.422Z,2602.00
2023-05-10T16:15:17.738Z,2587.00
2023-05-10T16:16:17.542Z,2606.00
2023-05-10T16:17:17.666Z,2596.00
2023-05-10T16:18:17.669Z,2597.00
2023-05-10T16:19:17.657Z,2590.00
2023-05-10T16:20:17.655Z,2602.00
2023-05-10T16:21:17.686Z,2606.00
2023-05-10T16:22:17.741Z,2602.00
2023-05-10T16:23:17.779Z,2610.00
2023-05-10T16:24:17.793Z,2588.00
2023-05-10T16:25:18.116Z,2611.00